Hawaii
Oahu
Maui
Big Island
Molokai
Kauai

ALL OF HAWAII WEATHER

Latest Infrared (IR) Satellite Image

North Pacific Surface Analysis Loop

NOAA/NWS Satellite Loops – State of Hawaii (IR)

NOAA/NWS Satellite Loops – State of Hawaii (Visible)

Latest Satellite Loop (Enhanced IR)


Latest Radar Loop (NEXRAD)


Current Jet Stream Analysis

Storm Tracker

Hawaii Lo-Level Sig Progs – 0 Hr

Hawaii Lo-Level Sig Progs – 12 Hr

Global Storm Tracker & Sea Surface Temps

OAHU WEATHER

Weather Station (Near Diamond Head)

July 20, 2019, 11:41 pm
26.3
°C
32.7
°C
25.3
°C
29.96
inHg
69
%
3.0
kt
7.0
kt
max
0.00
in/h
0.01
in
today
2500
ft
20.2
°C
Available data for PHNL from the past 2 hours
HONOLULU, HI
Metar
PHNL 210853Z 04010KT 10SM FEW022 SCT039 27/21 A2998 RMK AO2 SLP152 T02720206 50002

08:53 UTC

Wind: 40° 10kt

Visibility: 10 SM

Sky: FEW 2200 ft

Temp: 27 deg C / 80.6 deg F

Dewpoint: 21 deg C / 69.8 deg F

Pressure: 29.98 inHg

TAF
PHNL 210827Z 2108/2212 06010KT P6SM FEW025 SCT045 FM212000 07016G24KT P6SM FEW025 SCT045 FM220900 06010KT P6SM FEW025 SCT045
Available data for PHJR from the past 2 hours
KALAELOA, HI
TAF
PHJR 210531Z 2106/2206 05014G22KT P6SM FEW025 SCT050 FM210800 07010KT P6SM SCT050 FM212000 07016G24KT P6SM FEW025 SCT050 AMD NOT SKED
Available data for PHNG from the past 2 hours
KANEOHE MCAS, HI
Metar
PHNG 210922Z 07012G19KT 10SM FEW025 BKN033 23/21 A2998 RMK AO2 T02330211 $

09:22 UTC

Wind: 70° 12kt

Visibility: 10 SM

Sky: FEW 2500 ft

Temp: 23 deg C / 73.4 deg F

Dewpoint: 21 deg C / 69.8 deg F

Pressure: 29.98 inHg

TAF
TAF PHNG 2109/2209 07012KT 9999 FEW025 SCT045 QNH2990INS TEMPO 2109/2112 BKN020 BKN040 TEMPO 2113/2117 8000 -SHRA BKN020 BKN040 T23/2112Z T27/2123Z
Available data for PHHI from the past 2 hours
WHEELER AFB/OAHU, HI
Metar
PHHI 210856Z AUTO 05010KT 10SM CLR 24/20 A3000 RMK AO2 SLP146 60000 T02410198 50003 $

08:56 UTC

Wind: 50° 10kt

Visibility: 10 SM

Sky:

Temp: 24 deg C / 75.2 deg F

Dewpoint: 20 deg C / 68 deg F

Pressure: 30 inHg

TAF
TAF PHHI 200700Z 2007/2113 07009KT 9999 SCT025 BKN035 QNH2998INS TEMPO 2011/2017 8000 -SHRA BKN020 BECMG 2018/2019 07012KT 9999 SCT030 QNH2997INS BECMG 2021/2022 08012G18KT 9999 SCT030 QNH2997INS BECMG 2104/2105 06009KT 9999 SCT030 QNH2997INS TX30/2023Z TN22/2014Z LAST NO AMDS AFT 2009 NEXT 2215

NOAA/NWS Satellite Loop – Oahu (Visible)

MAUI WEATHER

NOAA/NWS Satellite Loop – Maui (Visible)

Latest radar loops (NEXRAD) – Maui

Kamuela NEXRAD

Available data for PHOG from the past 2 hours
KAHULUI, HI
Metar
PHOG 210854Z 04013KT 10SM CLR 26/22 A2999 RMK AO2 RAB00E11 SLP160 P0000 60001 T02560222 51006 $

08:54 UTC

Wind: 40° 13kt

Visibility: 10 SM

Sky:

Temp: 26 deg C / 78.8 deg F

Dewpoint: 22 deg C / 71.6 deg F

Pressure: 29.99 inHg

TAF
PHOG 210531Z 2106/2206 05012G18KT P6SM VCSH FEW030 SCT045 FM211000 05010KT P6SM FEW030 SCT045 FM211800 05012G18KT P6SM FEW030 SCT045 FM212200 05018G26KT P6SM FEW035 SCT060 AMD LTD TO VIS AND WIND 2109/2116
Available data for PHJH from the past 2 hours
LAHAINA/WEST MAU, HI
TAF
PHJH 202340Z 2100/2124 04012G18KT P6SM FEW030 SCT045 FM210800 04010KT P6SM FEW030 SCT045 FM211900 04012G18KT P6SM FEW030 SCT045 AMD NOT SKED AFT 210400

BIG ISLAND WEATHER

Latest Radar Loop (NEXRAD) – Big Island

NOAA/NWS Satellite Loop – Big Island (Visible)

Available data for PHKO from the past 2 hours
KAILUA/KONA, HI
Metar
PHKO 210853Z AUTO 09004KT 10SM CLR 26/22 A2994 RMK AO2 SLP138 T02610217 51006 TSNO

08:53 UTC

Wind: 90° 4kt

Visibility: 10 SM

Sky:

Temp: 26 deg C / 78.8 deg F

Dewpoint: 22 deg C / 71.6 deg F

Pressure: 29.94 inHg

TAF
PHKO 210531Z 2106/2206 16007KT P6SM FEW025 SCT035 BKN060 FM210800 10007KT P6SM FEW035 SCT060 FM212000 22010KT P6SM SCT045 BKN070
Available data for PHTO from the past 2 hours
HILO, HI
Metar
PHTO 210925Z AUTO 22005KT 9SM FEW023 BKN033 BKN045 23/21 A3000 RMK AO2 RAE24 P0008 T02280211 TSNO

09:25 UTC

Wind: 220° 5kt

Visibility: 9 SM

Sky: FEW 2300 ft

Temp: 23 deg C / 73.4 deg F

Dewpoint: 21 deg C / 69.8 deg F

Pressure: 30 inHg

TAF
PHTO 210704Z 2107/2206 VRB04KT 6SM -SHRA SCT025 BKN040 BKN060 TEMPO 2107/2110 2SM SHRA BR BKN025 OVC040 FM211200 24004KT 5SM -SHRA BR SCT015 BKN030 OVC050 FM212000 08007KT P6SM VCSH FEW025 SCT040 BKN060

MOLOKAI WEATHER

Latest Radar Loop (NEXRAD) – Molokai (HMO)

Molokai NEXRAD

Available data for PHMK from the past 2 hours
MOLOKAI, HI
Metar
PHMK 210854Z AUTO 05013G20KT 10SM FEW023 26/21 A3000 RMK AO2 SLP160 T02560206 50006 TSNO

08:54 UTC

Wind: 50° 13kt

Visibility: 10 SM

Sky: FEW 2300 ft

Temp: 26 deg C / 78.8 deg F

Dewpoint: 21 deg C / 69.8 deg F

Pressure: 30 inHg

TAF
PHMK 210701Z 2107/2206 05010G18KT P6SM FEW025 SCT040 TEMPO 2107/2109 -SHRA SCT020 BKN030 FM212000 05016G24KT P6SM SCT040

KAUAI WEATHER

NOAA/NWS Satellite Loop – Kauai (Visible)

Latest radar loops (NEXRAD) – South Kauai (HKI)

Kauai NEXRAD

Available data for PHLI from the past 2 hours
LIHUE/KAUAI IS, HI
Metar
PHLI 210924Z AUTO 05015KT 10SM -RA BKN022 BKN028 OVC039 27/23 A3002 RMK AO2 RAB20 P0000 T02720228 TSNO

09:24 UTC

Wind: 50° 15kt

Visibility: 10 SM

Sky: BKN 2200 ft

Temp: 27 deg C / 80.6 deg F

Dewpoint: 23 deg C / 73.4 deg F

Pressure: 30.02 inHg

TAF
PHLI 210531Z 2106/2206 05014KT P6SM VCSH SCT020 BKN035 BKN045 FM220000 05014KT P6SM FEW035 SCT045
Available data for PHBK from the past 2 hours
BARKING SANDS/KA, HI
Metar
PHBK 210856Z AUTO 00000KT 10SM CLR 27/17 A2998 RMK AO2 SLP154 T02720167 51007 $

08:56 UTC

Wind: 0° 0kt

Visibility: 10 SM

Sky:

Temp: 27 deg C / 80.6 deg F

Dewpoint: 17 deg C / 62.6 deg F

Pressure: 29.98 inHg

DISCLAIMER: We do not endorse any specific product or service.  Always verify information provided. Refer to latest FAA publications, charts & recommendations.